sensor_id;sensor_type;location;lat;lon;timestamp;P1;durP1;ratioP1;P2;durP2;ratioP2
27213;SDS011;14723;55.814;37.460;2022-07-23T00:00:58;14.23;;;6.43;;
27213;SDS011;14723;55.814;37.460;2022-07-23T00:04:03;16.58;;;6.65;;
27213;SDS011;14723;55.814;37.460;2022-07-23T00:07:08;11.20;;;6.30;;
27213;SDS011;14723;55.814;37.460;2022-07-23T00:10:13;10.50;;;6.20;;
27213;SDS011;14723;55.814;37.460;2022-07-23T00:13:18;8.88;;;6.60;;
27213;SDS011;14723;55.814;37.460;2022-07-23T00:16:27;13.98;;;6.38;;
27213;SDS011;14723;55.814;37.460;2022-07-23T00:19:32;16.23;;;6.45;;
27213;SDS011;14723;55.814;37.460;2022-07-23T00:22:45;14.32;;;6.75;;
27213;SDS011;14723;55.814;37.460;2022-07-23T00:25:50;13.85;;;7.00;;
27213;SDS011;14723;55.814;37.460;2022-07-23T00:28:55;12.25;;;6.80;;
27213;SDS011;14723;55.814;37.460;2022-07-23T00:32:03;10.65;;;6.63;;
27213;SDS011;14723;55.814;37.460;2022-07-23T00:35:09;13.85;;;6.97;;
27213;SDS011;14723;55.814;37.460;2022-07-23T00:38:14;14.80;;;6.68;;
27213;SDS011;14723;55.814;37.460;2022-07-23T00:41:19;16.50;;;7.00;;
27213;SDS011;14723;55.814;37.460;2022-07-23T00:44:25;20.10;;;7.35;;
27213;SDS011;14723;55.814;37.460;2022-07-23T00:47:33;13.50;;;6.82;;
27213;SDS011;14723;55.814;37.460;2022-07-23T00:50:38;11.00;;;6.93;;
27213;SDS011;14723;55.814;37.460;2022-07-23T00:53:43;12.70;;;6.28;;
27213;SDS011;14723;55.814;37.460;2022-07-23T00:56:49;11.27;;;6.45;;
27213;SDS011;14723;55.814;37.460;2022-07-23T00:59:54;12.07;;;7.05;;
27213;SDS011;14723;55.814;37.460;2022-07-23T01:03:02;15.02;;;7.00;;
27213;SDS011;14723;55.814;37.460;2022-07-23T01:06:08;15.25;;;7.25;;
27213;SDS011;14723;55.814;37.460;2022-07-23T01:09:13;14.23;;;6.90;;
27213;SDS011;14723;55.814;37.460;2022-07-23T01:12:18;16.52;;;6.70;;
27213;SDS011;14723;55.814;37.460;2022-07-23T01:15:24;19.73;;;7.70;;
27213;SDS011;14723;55.814;37.460;2022-07-23T01:18:32;14.82;;;6.63;;
27213;SDS011;14723;55.814;37.460;2022-07-23T01:21:37;13.18;;;7.97;;
27213;SDS011;14723;55.814;37.460;2022-07-23T01:24:45;14.13;;;6.60;;
27213;SDS011;14723;55.814;37.460;2022-07-23T01:27:56;14.27;;;6.57;;
27213;SDS011;14723;55.814;37.460;2022-07-23T01:31:02;13.32;;;6.97;;
27213;SDS011;14723;55.814;37.460;2022-07-23T01:34:09;15.98;;;7.25;;
27213;SDS011;14723;55.814;37.460;2022-07-23T01:37:15;19.75;;;7.50;;
27213;SDS011;14723;55.814;37.460;2022-07-23T01:40:24;13.20;;;7.03;;
27213;SDS011;14723;55.814;37.460;2022-07-23T01:43:30;12.95;;;6.72;;
27213;SDS011;14723;55.814;37.460;2022-07-23T01:46:37;16.15;;;7.25;;
27213;SDS011;14723;55.814;37.460;2022-07-23T01:49:43;19.80;;;7.82;;
27213;SDS011;14723;55.814;37.460;2022-07-23T01:53:04;11.43;;;6.70;;
27213;SDS011;14723;55.814;37.460;2022-07-23T01:56:13;15.77;;;6.75;;
27213;SDS011;14723;55.814;37.460;2022-07-23T01:59:20;20.45;;;7.40;;
27213;SDS011;14723;55.814;37.460;2022-07-23T02:02:26;18.20;;;7.20;;
27213;SDS011;14723;55.814;37.460;2022-07-23T02:05:31;20.25;;;6.70;;
27213;SDS011;14723;55.814;37.460;2022-07-23T02:08:36;12.38;;;6.22;;
27213;SDS011;14723;55.814;37.460;2022-07-23T02:11:45;18.52;;;6.70;;
27213;SDS011;14723;55.814;37.460;2022-07-23T02:14:50;12.18;;;6.10;;
27213;SDS011;14723;55.814;37.460;2022-07-23T02:17:55;13.40;;;7.05;;
27213;SDS011;14723;55.814;37.460;2022-07-23T02:21:01;10.57;;;7.07;;
27213;SDS011;14723;55.814;37.460;2022-07-23T02:24:08;10.20;;;8.15;;
27213;SDS011;14723;55.814;37.460;2022-07-23T02:27:18;10.32;;;6.22;;
27213;SDS011;14723;55.814;37.460;2022-07-23T02:30:24;18.50;;;7.22;;
27213;SDS011;14723;55.814;37.460;2022-07-23T02:33:29;12.23;;;6.70;;
27213;SDS011;14723;55.814;37.460;2022-07-23T02:36:34;11.20;;;6.30;;
27213;SDS011;14723;55.814;37.460;2022-07-23T02:39:41;17.77;;;6.75;;
27213;SDS011;14723;55.814;37.460;2022-07-23T02:42:49;13.43;;;7.15;;
27213;SDS011;14723;55.814;37.460;2022-07-23T02:45:55;11.52;;;7.00;;
27213;SDS011;14723;55.814;37.460;2022-07-23T02:49:00;10.77;;;6.55;;
27213;SDS011;14723;55.814;37.460;2022-07-23T02:52:07;16.73;;;6.50;;
27213;SDS011;14723;55.814;37.460;2022-07-23T02:55:13;11.15;;;6.13;;
27213;SDS011;14723;55.814;37.460;2022-07-23T02:58:21;9.85;;;6.53;;
27213;SDS011;14723;55.814;37.460;2022-07-23T03:04:32;10.10;;;6.43;;
27213;SDS011;14723;55.814;37.460;2022-07-23T03:07:37;11.55;;;6.30;;
27213;SDS011;14723;55.814;37.460;2022-07-23T03:10:43;10.20;;;5.80;;
27213;SDS011;14723;55.814;37.460;2022-07-23T03:13:50;9.85;;;6.38;;
27213;SDS011;14723;55.814;37.460;2022-07-23T03:16:56;8.02;;;6.05;;
27213;SDS011;14723;55.814;37.460;2022-07-23T03:20:01;9.65;;;6.45;;
27213;SDS011;14723;55.814;37.460;2022-07-23T03:23:07;14.00;;;10.10;;
27213;SDS011;14723;55.814;37.460;2022-07-23T03:26:13;11.30;;;6.75;;
27213;SDS011;14723;55.814;37.460;2022-07-23T03:29:20;9.00;;;6.30;;
27213;SDS011;14723;55.814;37.460;2022-07-23T03:32:25;10.02;;;6.72;;
27213;SDS011;14723;55.814;37.460;2022-07-23T03:35:31;6.93;;;5.93;;
27213;SDS011;14723;55.814;37.460;2022-07-23T03:38:51;10.90;;;6.53;;
27213;SDS011;14723;55.814;37.460;2022-07-23T03:41:56;9.85;;;5.90;;
27213;SDS011;14723;55.814;37.460;2022-07-23T03:45:05;10.60;;;6.32;;
27213;SDS011;14723;55.814;37.460;2022-07-23T03:48:10;14.10;;;6.28;;
27213;SDS011;14723;55.814;37.460;2022-07-23T03:51:16;11.65;;;7.03;;
27213;SDS011;14723;55.814;37.460;2022-07-23T03:54:21;10.32;;;6.18;;
27213;SDS011;14723;55.814;37.460;2022-07-23T03:57:26;9.07;;;7.00;;
27213;SDS011;14723;55.814;37.460;2022-07-23T04:00:35;11.75;;;6.50;;
27213;SDS011;14723;55.814;37.460;2022-07-23T04:03:40;13.05;;;7.13;;
27213;SDS011;14723;55.814;37.460;2022-07-23T04:06:45;11.23;;;6.40;;
27213;SDS011;14723;55.814;37.460;2022-07-23T04:09:51;9.90;;;5.93;;
27213;SDS011;14723;55.814;37.460;2022-07-23T04:12:56;11.23;;;6.45;;
27213;SDS011;14723;55.814;37.460;2022-07-23T04:16:04;12.65;;;6.53;;
27213;SDS011;14723;55.814;37.460;2022-07-23T04:19:10;8.70;;;6.15;;
27213;SDS011;14723;55.814;37.460;2022-07-23T04:22:28;11.10;;;7.03;;
27213;SDS011;14723;55.814;37.460;2022-07-23T04:25:33;12.30;;;7.15;;
27213;SDS011;14723;55.814;37.460;2022-07-23T04:28:39;11.93;;;7.50;;
27213;SDS011;14723;55.814;37.460;2022-07-23T04:31:48;10.68;;;6.78;;
27213;SDS011;14723;55.814;37.460;2022-07-23T04:34:53;23.00;;;7.45;;
27213;SDS011;14723;55.814;37.460;2022-07-23T04:37:59;10.07;;;7.00;;
27213;SDS011;14723;55.814;37.460;2022-07-23T04:41:04;15.70;;;7.00;;
27213;SDS011;14723;55.814;37.460;2022-07-23T04:44:10;17.42;;;6.70;;
27213;SDS011;14723;55.814;37.460;2022-07-23T04:47:18;9.80;;;6.40;;
27213;SDS011;14723;55.814;37.460;2022-07-23T04:50:29;14.63;;;7.00;;
27213;SDS011;14723;55.814;37.460;2022-07-23T04:53:36;17.35;;;7.45;;
27213;SDS011;14723;55.814;37.460;2022-07-23T04:56:42;12.75;;;7.47;;
27213;SDS011;14723;55.814;37.460;2022-07-23T04:59:47;11.80;;;6.88;;
27213;SDS011;14723;55.814;37.460;2022-07-23T05:02:57;8.80;;;6.93;;
27213;SDS011;14723;55.814;37.460;2022-07-23T05:06:02;12.77;;;7.07;;
27213;SDS011;14723;55.814;37.460;2022-07-23T05:09:08;10.90;;;6.50;;
27213;SDS011;14723;55.814;37.460;2022-07-23T05:12:14;10.50;;;6.60;;
27213;SDS011;14723;55.814;37.460;2022-07-23T05:15:19;11.27;;;7.43;;
27213;SDS011;14723;55.814;37.460;2022-07-23T05:18:27;16.33;;;7.13;;
27213;SDS011;14723;55.814;37.460;2022-07-23T05:24:38;9.98;;;6.90;;
27213;SDS011;14723;55.814;37.460;2022-07-23T05:27:44;10.52;;;7.13;;
27213;SDS011;14723;55.814;37.460;2022-07-23T05:30:49;10.60;;;6.80;;
27213;SDS011;14723;55.814;37.460;2022-07-23T05:33:58;9.13;;;6.28;;
27213;SDS011;14723;55.814;37.460;2022-07-23T05:37:04;8.75;;;6.63;;
27213;SDS011;14723;55.814;37.460;2022-07-23T05:40:10;7.70;;;6.40;;
27213;SDS011;14723;55.814;37.460;2022-07-23T05:43:16;10.50;;;7.38;;
27213;SDS011;14723;55.814;37.460;2022-07-23T05:46:21;11.80;;;7.07;;
27213;SDS011;14723;55.814;37.460;2022-07-23T05:49:34;12.63;;;6.53;;
27213;SDS011;14723;55.814;37.460;2022-07-23T05:53:00;7.97;;;6.55;;
27213;SDS011;14723;55.814;37.460;2022-07-23T05:56:38;8.93;;;6.80;;
27213;SDS011;14723;55.814;37.460;2022-07-23T05:59:43;8.27;;;6.35;;
27213;SDS011;14723;55.814;37.460;2022-07-23T06:02:48;8.90;;;6.03;;
27213;SDS011;14723;55.814;37.460;2022-07-23T06:06:00;12.30;;;7.10;;
27213;SDS011;14723;55.814;37.460;2022-07-23T06:09:05;10.15;;;6.63;;
27213;SDS011;14723;55.814;37.460;2022-07-23T06:12:10;8.20;;;6.70;;
27213;SDS011;14723;55.814;37.460;2022-07-23T06:15:15;22.90;;;7.75;;
27213;SDS011;14723;55.814;37.460;2022-07-23T06:18:20;11.93;;;7.72;;
27213;SDS011;14723;55.814;37.460;2022-07-23T06:21:30;16.25;;;8.20;;
27213;SDS011;14723;55.814;37.460;2022-07-23T06:24:51;12.95;;;7.75;;
27213;SDS011;14723;55.814;37.460;2022-07-23T06:27:56;10.65;;;7.45;;
27213;SDS011;14723;55.814;37.460;2022-07-23T06:31:02;10.85;;;7.10;;
27213;SDS011;14723;55.814;37.460;2022-07-23T06:34:07;8.60;;;6.88;;
27213;SDS011;14723;55.814;37.460;2022-07-23T06:37:15;9.48;;;7.00;;
27213;SDS011;14723;55.814;37.460;2022-07-23T06:40:21;12.40;;;7.32;;
27213;SDS011;14723;55.814;37.460;2022-07-23T06:43:26;12.50;;;8.52;;
27213;SDS011;14723;55.814;37.460;2022-07-23T06:46:32;7.68;;;6.82;;
27213;SDS011;14723;55.814;37.460;2022-07-23T06:49:37;12.18;;;7.07;;
27213;SDS011;14723;55.814;37.460;2022-07-23T06:52:46;8.52;;;6.47;;
27213;SDS011;14723;55.814;37.460;2022-07-23T06:55:51;9.55;;;7.38;;
27213;SDS011;14723;55.814;37.460;2022-07-23T06:58:56;9.52;;;7.60;;
27213;SDS011;14723;55.814;37.460;2022-07-23T07:02:02;10.38;;;7.60;;
27213;SDS011;14723;55.814;37.460;2022-07-23T07:05:07;6.82;;;6.10;;
27213;SDS011;14723;55.814;37.460;2022-07-23T07:08:15;10.35;;;6.00;;
27213;SDS011;14723;55.814;37.460;2022-07-23T07:11:20;10.35;;;7.32;;
27213;SDS011;14723;55.814;37.460;2022-07-23T07:14:26;9.80;;;7.22;;
27213;SDS011;14723;55.814;37.460;2022-07-23T07:17:31;8.05;;;6.78;;
27213;SDS011;14723;55.814;37.460;2022-07-23T07:20:36;13.65;;;7.63;;
27213;SDS011;14723;55.814;37.460;2022-07-23T07:23:44;8.80;;;7.35;;
27213;SDS011;14723;55.814;37.460;2022-07-23T07:26:49;11.23;;;6.88;;
27213;SDS011;14723;55.814;37.460;2022-07-23T07:29:54;9.32;;;7.65;;
27213;SDS011;14723;55.814;37.460;2022-07-23T07:32:59;10.07;;;7.45;;
27213;SDS011;14723;55.814;37.460;2022-07-23T07:36:05;9.38;;;7.82;;
27213;SDS011;14723;55.814;37.460;2022-07-23T07:39:13;13.50;;;8.23;;
27213;SDS011;14723;55.814;37.460;2022-07-23T07:42:18;9.55;;;7.75;;
27213;SDS011;14723;55.814;37.460;2022-07-23T07:45:23;8.75;;;7.30;;
27213;SDS011;14723;55.814;37.460;2022-07-23T07:48:29;8.70;;;7.28;;
27213;SDS011;14723;55.814;37.460;2022-07-23T07:51:34;10.93;;;8.30;;
27213;SDS011;14723;55.814;37.460;2022-07-23T07:54:42;10.63;;;6.88;;
27213;SDS011;14723;55.814;37.460;2022-07-23T07:57:48;13.30;;;10.07;;
27213;SDS011;14723;55.814;37.460;2022-07-23T08:00:53;9.60;;;7.45;;
27213;SDS011;14723;55.814;37.460;2022-07-23T08:03:59;11.23;;;7.22;;
27213;SDS011;14723;55.814;37.460;2022-07-23T08:07:05;10.30;;;7.38;;
27213;SDS011;14723;55.814;37.460;2022-07-23T08:10:13;11.45;;;7.72;;
27213;SDS011;14723;55.814;37.460;2022-07-23T08:13:18;10.23;;;7.40;;
27213;SDS011;14723;55.814;37.460;2022-07-23T08:16:23;9.38;;;7.28;;
27213;SDS011;14723;55.814;37.460;2022-07-23T08:19:29;6.93;;;6.00;;
27213;SDS011;14723;55.814;37.460;2022-07-23T08:22:44;7.43;;;6.65;;
27213;SDS011;14723;55.814;37.460;2022-07-23T08:25:52;12.70;;;7.10;;
27213;SDS011;14723;55.814;37.460;2022-07-23T08:28:58;8.38;;;6.78;;
27213;SDS011;14723;55.814;37.460;2022-07-23T08:32:04;8.10;;;7.30;;
27213;SDS011;14723;55.814;37.460;2022-07-23T08:35:30;7.80;;;7.10;;
27213;SDS011;14723;55.814;37.460;2022-07-23T08:38:35;8.15;;;7.35;;
27213;SDS011;14723;55.814;37.460;2022-07-23T08:41:44;7.95;;;7.07;;
27213;SDS011;14723;55.814;37.460;2022-07-23T08:44:50;9.77;;;7.80;;
27213;SDS011;14723;55.814;37.460;2022-07-23T08:47:55;11.00;;;7.75;;
27213;SDS011;14723;55.814;37.460;2022-07-23T08:51:06;13.45;;;8.30;;
27213;SDS011;14723;55.814;37.460;2022-07-23T08:54:12;10.07;;;7.97;;
27213;SDS011;14723;55.814;37.460;2022-07-23T08:57:20;16.30;;;8.20;;
27213;SDS011;14723;55.814;37.460;2022-07-23T09:03:31;11.15;;;7.82;;
27213;SDS011;14723;55.814;37.460;2022-07-23T09:06:38;8.10;;;7.25;;
27213;SDS011;14723;55.814;37.460;2022-07-23T09:09:43;8.10;;;7.30;;
27213;SDS011;14723;55.814;37.460;2022-07-23T09:12:51;10.43;;;8.07;;
27213;SDS011;14723;55.814;37.460;2022-07-23T09:15:57;12.38;;;8.68;;
27213;SDS011;14723;55.814;37.460;2022-07-23T09:19:03;10.77;;;7.45;;
27213;SDS011;14723;55.814;37.460;2022-07-23T09:22:18;9.25;;;7.47;;
27213;SDS011;14723;55.814;37.460;2022-07-23T09:25:29;14.82;;;7.57;;
27213;SDS011;14723;55.814;37.460;2022-07-23T09:28:41;13.60;;;7.53;;
27213;SDS011;14723;55.814;37.460;2022-07-23T09:31:53;9.50;;;7.55;;
27213;SDS011;14723;55.814;37.460;2022-07-23T09:34:58;9.48;;;7.80;;
27213;SDS011;14723;55.814;37.460;2022-07-23T09:38:03;11.13;;;8.18;;
27213;SDS011;14723;55.814;37.460;2022-07-23T09:41:09;8.43;;;7.60;;
27213;SDS011;14723;55.814;37.460;2022-07-23T09:44:18;9.35;;;8.38;;
27213;SDS011;14723;55.814;37.460;2022-07-23T09:47:30;9.70;;;8.13;;
27213;SDS011;14723;55.814;37.460;2022-07-23T09:50:39;12.65;;;8.10;;
27213;SDS011;14723;55.814;37.460;2022-07-23T09:53:44;10.68;;;8.80;;
27213;SDS011;14723;55.814;37.460;2022-07-23T09:56:49;8.43;;;7.50;;
27213;SDS011;14723;55.814;37.460;2022-07-23T10:00:00;10.48;;;8.27;;
27213;SDS011;14723;55.814;37.460;2022-07-23T10:03:06;10.57;;;7.95;;
27213;SDS011;14723;55.814;37.460;2022-07-23T10:06:14;9.20;;;7.90;;
27213;SDS011;14723;55.814;37.460;2022-07-23T10:09:39;8.50;;;7.55;;
27213;SDS011;14723;55.814;37.460;2022-07-23T10:13:04;9.90;;;8.38;;
27213;SDS011;14723;55.814;37.460;2022-07-23T10:16:26;9.32;;;7.75;;
27213;SDS011;14723;55.814;37.460;2022-07-23T10:19:31;10.90;;;8.98;;
27213;SDS011;14723;55.814;37.460;2022-07-23T10:22:37;13.27;;;9.50;;
27213;SDS011;14723;55.814;37.460;2022-07-23T10:25:45;10.85;;;8.80;;
27213;SDS011;14723;55.814;37.460;2022-07-23T10:28:56;8.98;;;8.05;;
27213;SDS011;14723;55.814;37.460;2022-07-23T10:32:08;12.63;;;8.27;;
27213;SDS011;14723;55.814;37.460;2022-07-23T10:35:22;9.65;;;8.50;;
27213;SDS011;14723;55.814;37.460;2022-07-23T10:38:30;8.68;;;7.72;;
27213;SDS011;14723;55.814;37.460;2022-07-23T10:41:37;9.70;;;7.82;;
27213;SDS011;14723;55.814;37.460;2022-07-23T10:44:42;8.25;;;7.40;;
27213;SDS011;14723;55.814;37.460;2022-07-23T10:47:51;9.52;;;7.47;;
27213;SDS011;14723;55.814;37.460;2022-07-23T10:51:06;10.25;;;8.40;;
27213;SDS011;14723;55.814;37.460;2022-07-23T10:54:20;8.38;;;7.63;;
27213;SDS011;14723;55.814;37.460;2022-07-23T10:57:26;9.93;;;7.80;;
27213;SDS011;14723;55.814;37.460;2022-07-23T11:00:31;12.27;;;8.50;;
27213;SDS011;14723;55.814;37.460;2022-07-23T11:03:39;8.90;;;8.00;;
27213;SDS011;14723;55.814;37.460;2022-07-23T11:09:49;9.93;;;8.95;;
27213;SDS011;14723;55.814;37.460;2022-07-23T11:12:56;10.90;;;8.80;;
27213;SDS011;14723;55.814;37.460;2022-07-23T11:16:22;10.15;;;8.18;;
27213;SDS011;14723;55.814;37.460;2022-07-23T11:19:30;15.97;;;10.40;;
27213;SDS011;14723;55.814;37.460;2022-07-23T11:25:41;9.23;;;7.78;;
27213;SDS011;14723;55.814;37.460;2022-07-23T11:28:46;9.77;;;8.88;;
27213;SDS011;14723;55.814;37.460;2022-07-23T11:31:51;8.55;;;7.85;;
27213;SDS011;14723;55.814;37.460;2022-07-23T11:35:00;8.45;;;7.47;;
27213;SDS011;14723;55.814;37.460;2022-07-23T11:38:06;8.18;;;7.38;;
27213;SDS011;14723;55.814;37.460;2022-07-23T11:41:11;7.40;;;6.80;;
27213;SDS011;14723;55.814;37.460;2022-07-23T11:44:23;8.20;;;7.30;;
27213;SDS011;14723;55.814;37.460;2022-07-23T11:47:29;7.57;;;6.85;;
27213;SDS011;14723;55.814;37.460;2022-07-23T11:50:36;14.45;;;7.53;;
27213;SDS011;14723;55.814;37.460;2022-07-23T11:53:41;8.95;;;7.68;;
27213;SDS011;14723;55.814;37.460;2022-07-23T11:56:54;10.52;;;7.50;;
27213;SDS011;14723;55.814;37.460;2022-07-23T12:00:01;8.57;;;7.28;;
27213;SDS011;14723;55.814;37.460;2022-07-23T12:03:14;10.50;;;7.22;;
27213;SDS011;14723;55.814;37.460;2022-07-23T12:06:22;9.48;;;8.23;;
27213;SDS011;14723;55.814;37.460;2022-07-23T12:09:27;10.27;;;7.68;;
27213;SDS011;14723;55.814;37.460;2022-07-23T12:12:36;10.63;;;7.57;;
27213;SDS011;14723;55.814;37.460;2022-07-23T12:15:42;8.10;;;7.30;;
27213;SDS011;14723;55.814;37.460;2022-07-23T12:18:47;8.45;;;7.65;;
27213;SDS011;14723;55.814;37.460;2022-07-23T12:21:55;8.98;;;7.95;;
27213;SDS011;14723;55.814;37.460;2022-07-23T12:25:03;9.30;;;7.55;;
27213;SDS011;14723;55.814;37.460;2022-07-23T12:28:10;8.48;;;7.78;;
27213;SDS011;14723;55.814;37.460;2022-07-23T12:31:15;8.80;;;7.32;;
27213;SDS011;14723;55.814;37.460;2022-07-23T12:34:30;11.73;;;7.60;;
27213;SDS011;14723;55.814;37.460;2022-07-23T12:37:39;11.77;;;7.70;;
27213;SDS011;14723;55.814;37.460;2022-07-23T12:40:45;7.88;;;7.15;;
27213;SDS011;14723;55.814;37.460;2022-07-23T12:43:51;7.60;;;6.90;;
27213;SDS011;14723;55.814;37.460;2022-07-23T12:46:56;8.35;;;7.05;;
27213;SDS011;14723;55.814;37.460;2022-07-23T12:50:02;7.45;;;6.70;;
27213;SDS011;14723;55.814;37.460;2022-07-23T12:53:12;9.17;;;6.70;;
27213;SDS011;14723;55.814;37.460;2022-07-23T12:56:27;10.63;;;7.72;;
27213;SDS011;14723;55.814;37.460;2022-07-23T12:59:32;11.75;;;7.28;;
27213;SDS011;14723;55.814;37.460;2022-07-23T13:02:44;11.97;;;7.77;;
27213;SDS011;14723;55.814;37.460;2022-07-23T13:05:49;10.40;;;7.50;;
27213;SDS011;14723;55.814;37.460;2022-07-23T13:08:57;10.23;;;7.32;;
27213;SDS011;14723;55.814;37.460;2022-07-23T13:12:04;8.50;;;7.45;;
27213;SDS011;14723;55.814;37.460;2022-07-23T13:15:12;10.70;;;7.47;;
27213;SDS011;14723;55.814;37.460;2022-07-23T13:18:18;7.68;;;6.75;;
27213;SDS011;14723;55.814;37.460;2022-07-23T13:21:24;9.15;;;6.78;;
27213;SDS011;14723;55.814;37.460;2022-07-23T13:24:32;10.48;;;6.65;;
27213;SDS011;14723;55.814;37.460;2022-07-23T13:27:57;10.75;;;7.55;;
27213;SDS011;14723;55.814;37.460;2022-07-23T13:31:03;8.00;;;7.20;;
27213;SDS011;14723;55.814;37.460;2022-07-23T13:34:10;7.93;;;7.22;;
27213;SDS011;14723;55.814;37.460;2022-07-23T13:37:15;8.27;;;7.47;;
27213;SDS011;14723;55.814;37.460;2022-07-23T13:40:23;7.72;;;6.93;;
27213;SDS011;14723;55.814;37.460;2022-07-23T13:43:28;10.35;;;7.38;;
27213;SDS011;14723;55.814;37.460;2022-07-23T13:46:37;11.50;;;7.38;;
27213;SDS011;14723;55.814;37.460;2022-07-23T13:49:42;15.32;;;7.03;;
27213;SDS011;14723;55.814;37.460;2022-07-23T13:52:49;8.68;;;7.85;;
27213;SDS011;14723;55.814;37.460;2022-07-23T13:55:57;8.35;;;7.13;;
27213;SDS011;14723;55.814;37.460;2022-07-23T13:59:02;10.50;;;7.90;;
27213;SDS011;14723;55.814;37.460;2022-07-23T14:02:08;7.40;;;6.70;;
27213;SDS011;14723;55.814;37.460;2022-07-23T14:05:22;7.75;;;7.05;;
27213;SDS011;14723;55.814;37.460;2022-07-23T14:08:27;8.15;;;7.38;;
27213;SDS011;14723;55.814;37.460;2022-07-23T14:11:35;7.65;;;7.03;;
27213;SDS011;14723;55.814;37.460;2022-07-23T14:14:41;7.43;;;6.72;;
27213;SDS011;14723;55.814;37.460;2022-07-23T14:17:46;8.45;;;7.72;;
27213;SDS011;14723;55.814;37.460;2022-07-23T14:20:51;8.10;;;7.07;;
27213;SDS011;14723;55.814;37.460;2022-07-23T14:23:56;9.13;;;6.63;;
27213;SDS011;14723;55.814;37.460;2022-07-23T14:27:04;8.32;;;6.82;;
27213;SDS011;14723;55.814;37.460;2022-07-23T14:30:10;9.75;;;7.20;;
27213;SDS011;14723;55.814;37.460;2022-07-23T14:33:17;10.95;;;6.93;;
27213;SDS011;14723;55.814;37.460;2022-07-23T14:36:22;7.38;;;6.78;;
27213;SDS011;14723;55.814;37.460;2022-07-23T14:39:29;6.72;;;6.00;;
27213;SDS011;14723;55.814;37.460;2022-07-23T14:42:37;7.22;;;6.53;;
27213;SDS011;14723;55.814;37.460;2022-07-23T14:45:44;7.70;;;6.90;;
27213;SDS011;14723;55.814;37.460;2022-07-23T14:48:50;7.15;;;6.55;;
27213;SDS011;14723;55.814;37.460;2022-07-23T14:51:55;10.60;;;7.30;;
27213;SDS011;14723;55.814;37.460;2022-07-23T14:55:01;7.63;;;6.45;;
27213;SDS011;14723;55.814;37.460;2022-07-23T14:58:09;7.25;;;6.43;;
27213;SDS011;14723;55.814;37.460;2022-07-23T15:01:14;8.05;;;6.65;;
27213;SDS011;14723;55.814;37.460;2022-07-23T15:04:20;9.27;;;6.70;;
27213;SDS011;14723;55.814;37.460;2022-07-23T15:07:40;7.55;;;6.78;;
27213;SDS011;14723;55.814;37.460;2022-07-23T15:10:46;7.40;;;6.70;;
27213;SDS011;14723;55.814;37.460;2022-07-23T15:13:53;9.13;;;6.70;;
27213;SDS011;14723;55.814;37.460;2022-07-23T15:16:59;7.47;;;6.82;;
27213;SDS011;14723;55.814;37.460;2022-07-23T15:20:04;13.48;;;6.82;;
27213;SDS011;14723;55.814;37.460;2022-07-23T15:23:10;9.13;;;7.10;;
27213;SDS011;14723;55.814;37.460;2022-07-23T15:26:16;9.43;;;6.95;;
27213;SDS011;14723;55.814;37.460;2022-07-23T15:29:24;9.32;;;7.18;;
27213;SDS011;14723;55.814;37.460;2022-07-23T15:32:30;8.38;;;7.47;;
27213;SDS011;14723;55.814;37.460;2022-07-23T15:35:35;9.02;;;7.55;;
27213;SDS011;14723;55.814;37.460;2022-07-23T15:38:40;9.45;;;7.07;;
27213;SDS011;14723;55.814;37.460;2022-07-23T15:41:46;7.65;;;6.78;;
27213;SDS011;14723;55.814;37.460;2022-07-23T15:44:54;7.95;;;7.10;;
27213;SDS011;14723;55.814;37.460;2022-07-23T15:47:59;10.73;;;6.78;;
27213;SDS011;14723;55.814;37.460;2022-07-23T15:51:05;8.80;;;7.45;;
27213;SDS011;14723;55.814;37.460;2022-07-23T15:54:10;8.35;;;7.55;;
27213;SDS011;14723;55.814;37.460;2022-07-23T15:57:16;9.30;;;6.93;;
27213;SDS011;14723;55.814;37.460;2022-07-23T16:00:25;7.97;;;7.18;;
27213;SDS011;14723;55.814;37.460;2022-07-23T16:03:31;8.13;;;7.00;;
27213;SDS011;14723;55.814;37.460;2022-07-23T16:06:36;7.32;;;6.63;;
27213;SDS011;14723;55.814;37.460;2022-07-23T16:09:43;8.27;;;6.07;;
27213;SDS011;14723;55.814;37.460;2022-07-23T16:12:48;11.18;;;7.13;;
27213;SDS011;14723;55.814;37.460;2022-07-23T16:15:56;11.77;;;7.68;;
27213;SDS011;14723;55.814;37.460;2022-07-23T16:22:06;8.20;;;6.75;;
27213;SDS011;14723;55.814;37.460;2022-07-23T16:25:13;7.57;;;6.88;;
27213;SDS011;14723;55.814;37.460;2022-07-23T16:28:18;7.55;;;6.82;;
27213;SDS011;14723;55.814;37.460;2022-07-23T16:31:26;9.02;;;6.65;;
27213;SDS011;14723;55.814;37.460;2022-07-23T16:34:33;10.27;;;6.75;;
27213;SDS011;14723;55.814;37.460;2022-07-23T16:37:38;8.73;;;6.63;;
27213;SDS011;14723;55.814;37.460;2022-07-23T16:40:43;11.95;;;6.85;;
27213;SDS011;14723;55.814;37.460;2022-07-23T16:43:48;11.10;;;6.63;;
27213;SDS011;14723;55.814;37.460;2022-07-23T16:46:57;8.80;;;7.28;;
27213;SDS011;14723;55.814;37.460;2022-07-23T16:50:02;8.13;;;7.03;;
27213;SDS011;14723;55.814;37.460;2022-07-23T16:53:09;11.27;;;7.33;;
27213;SDS011;14723;55.814;37.460;2022-07-23T16:56:14;10.55;;;7.63;;
27213;SDS011;14723;55.814;37.460;2022-07-23T16:59:19;8.05;;;6.60;;
27213;SDS011;14723;55.814;37.460;2022-07-23T17:02:27;11.98;;;7.65;;
27213;SDS011;14723;55.814;37.460;2022-07-23T17:08:37;11.00;;;6.60;;
27213;SDS011;14723;55.814;37.460;2022-07-23T17:11:43;13.82;;;7.20;;
27213;SDS011;14723;55.814;37.460;2022-07-23T17:14:48;12.30;;;6.97;;
27213;SDS011;14723;55.814;37.460;2022-07-23T17:17:56;8.02;;;6.75;;
27213;SDS011;14723;55.814;37.460;2022-07-23T17:21:01;23.88;;;8.95;;
27213;SDS011;14723;55.814;37.460;2022-07-23T17:24:07;7.75;;;6.65;;
27213;SDS011;14723;55.814;37.460;2022-07-23T17:27:13;10.48;;;7.03;;
27213;SDS011;14723;55.814;37.460;2022-07-23T17:30:20;15.07;;;7.83;;
27213;SDS011;14723;55.814;37.460;2022-07-23T17:33:28;10.75;;;7.45;;
27213;SDS011;14723;55.814;37.460;2022-07-23T17:39:38;15.10;;;7.10;;
27213;SDS011;14723;55.814;37.460;2022-07-23T17:42:43;15.38;;;8.35;;
27213;SDS011;14723;55.814;37.460;2022-07-23T17:45:48;9.77;;;7.30;;
27213;SDS011;14723;55.814;37.460;2022-07-23T17:48:57;10.93;;;7.53;;
27213;SDS011;14723;55.814;37.460;2022-07-23T17:52:04;15.10;;;7.60;;
27213;SDS011;14723;55.814;37.460;2022-07-23T17:55:09;11.63;;;8.18;;
27213;SDS011;14723;55.814;37.460;2022-07-23T17:58:23;17.30;;;8.82;;
27213;SDS011;14723;55.814;37.460;2022-07-23T18:01:28;21.02;;;9.93;;
27213;SDS011;14723;55.814;37.460;2022-07-23T18:04:37;13.45;;;8.43;;
27213;SDS011;14723;55.814;37.460;2022-07-23T18:07:42;18.95;;;8.82;;
27213;SDS011;14723;55.814;37.460;2022-07-23T18:10:47;17.80;;;8.65;;
27213;SDS011;14723;55.814;37.460;2022-07-23T18:13:52;15.65;;;9.00;;
27213;SDS011;14723;55.814;37.460;2022-07-23T18:16:59;17.55;;;9.23;;
27213;SDS011;14723;55.814;37.460;2022-07-23T18:20:07;19.17;;;11.30;;
27213;SDS011;14723;55.814;37.460;2022-07-23T18:23:13;18.05;;;9.35;;
27213;SDS011;14723;55.814;37.460;2022-07-23T18:26:18;21.58;;;10.63;;
27213;SDS011;14723;55.814;37.460;2022-07-23T18:29:23;20.52;;;9.30;;
27213;SDS011;14723;55.814;37.460;2022-07-23T18:32:28;17.95;;;9.80;;
27213;SDS011;14723;55.814;37.460;2022-07-23T18:35:37;22.95;;;9.93;;
27213;SDS011;14723;55.814;37.460;2022-07-23T18:41:51;20.63;;;9.00;;
27213;SDS011;14723;55.814;37.460;2022-07-23T18:44:57;27.52;;;11.13;;
27213;SDS011;14723;55.814;37.460;2022-07-23T18:48:08;16.02;;;9.40;;